createdAt,value
2019-05-10T00:00:23.530Z,10.38
2019-05-10T00:05:45.319Z,9.80
2019-05-10T00:10:50.447Z,9.30
2019-05-10T00:15:54.040Z,10.50
2019-05-10T00:20:57.652Z,10.93
2019-05-10T00:26:01.206Z,10.25
2019-05-10T00:31:04.902Z,9.18
2019-05-10T00:36:08.454Z,9.30
2019-05-10T00:41:12.055Z,9.40
2019-05-10T00:46:15.614Z,9.43
2019-05-10T00:51:19.227Z,9.45
2019-05-10T00:56:22.764Z,9.78
2019-05-10T01:01:26.358Z,8.95
2019-05-10T01:06:29.914Z,9.00
2019-05-10T01:11:33.511Z,10.15
2019-05-10T01:16:37.061Z,9.53
2019-05-10T01:21:40.658Z,9.93
2019-05-10T01:26:44.754Z,9.08
2019-05-10T01:31:48.318Z,7.47
2019-05-10T01:36:51.902Z,8.23
2019-05-10T01:41:55.488Z,7.65
2019-05-10T01:46:59.045Z,8.87
2019-05-10T01:52:02.624Z,8.33
2019-05-10T01:57:06.219Z,7.40
2019-05-10T02:02:09.847Z,8.87
2019-05-10T02:07:13.415Z,9.70
2019-05-10T02:12:16.983Z,9.10
2019-05-10T02:17:20.552Z,8.90
2019-05-10T02:22:24.224Z,8.63
2019-05-10T02:27:27.809Z,8.90
2019-05-10T02:32:31.395Z,9.88
2019-05-10T02:37:35.142Z,9.08
2019-05-10T02:42:38.728Z,9.70
2019-05-10T02:47:42.301Z,9.13
2019-05-10T02:52:45.876Z,11.60
2019-05-10T02:57:49.475Z,15.53
2019-05-10T03:02:53.077Z,14.18
2019-05-10T03:07:57.037Z,10.43
2019-05-10T03:13:01.799Z,10.48
2019-05-10T03:18:06.039Z,9.63
2019-05-10T03:23:10.578Z,8.98
2019-05-10T03:28:14.146Z,8.07
2019-05-10T03:33:17.726Z,8.40
2019-05-10T03:38:21.344Z,9.25
2019-05-10T03:43:24.911Z,9.53
2019-05-10T03:48:28.487Z,9.90
2019-05-10T03:53:32.038Z,10.10
2019-05-10T03:58:35.615Z,10.65
2019-05-10T04:03:39.665Z,10.13
2019-05-10T04:08:43.227Z,11.70
2019-05-10T04:13:46.824Z,9.38
2019-05-10T04:18:50.379Z,8.65
2019-05-10T04:23:53.996Z,7.80
2019-05-10T04:28:57.530Z,8.08
2019-05-10T04:34:01.118Z,8.03
2019-05-10T04:39:06.556Z,7.58
2019-05-10T04:44:10.125Z,7.83
2019-05-10T04:49:13.734Z,8.80
2019-05-10T04:54:17.274Z,6.78
2019-05-10T04:59:20.835Z,8.00
2019-05-10T05:04:24.429Z,7.83
2019-05-10T05:09:27.983Z,8.97
2019-05-10T05:14:31.544Z,9.18
2019-05-10T05:19:35.154Z,7.50
2019-05-10T05:24:38.701Z,8.65
2019-05-10T05:29:42.310Z,8.55
2019-05-10T05:34:45.871Z,9.68
2019-05-10T05:39:49.452Z,8.28
2019-05-10T05:44:53.003Z,9.40
2019-05-10T05:49:56.603Z,8.33
2019-05-10T05:55:00.146Z,10.18
2019-05-10T06:00:06.668Z,8.40
2019-05-10T06:05:10.209Z,7.62
2019-05-10T06:10:16.921Z,7.90
2019-05-10T06:15:23.123Z,6.95
2019-05-10T06:20:24.378Z,6.55
2019-05-10T06:25:39.567Z,6.42
2019-05-10T06:30:33.246Z,6.10
2019-05-10T06:35:36.818Z,6.10
2019-05-10T06:40:46.890Z,7.20
2019-05-10T06:45:46.701Z,6.10
2019-05-10T06:50:51.001Z,6.12
2019-05-10T06:55:54.563Z,5.87
2019-05-10T07:00:58.151Z,5.67
2019-05-10T07:06:01.703Z,6.05
2019-05-10T07:11:05.669Z,5.12
2019-05-10T07:16:09.220Z,5.80
2019-05-10T07:21:12.786Z,6.23
2019-05-10T07:26:22.902Z,6.55
2019-05-10T07:31:23.604Z,4.30
2019-05-10T07:36:30.539Z,5.78
2019-05-10T07:41:32.278Z,4.78
2019-05-10T07:46:40.237Z,5.35
2019-05-10T07:51:41.650Z,4.83
2019-05-10T07:56:47.803Z,4.78
2019-05-10T08:01:51.441Z,4.65
2019-05-10T08:06:54.982Z,4.40
2019-05-10T08:12:03.235Z,4.58
2019-05-10T08:17:06.266Z,4.70
2019-05-10T08:22:10.285Z,3.87
2019-05-10T08:27:14.757Z,4.25
2019-05-10T08:32:19.333Z,3.90
2019-05-10T08:37:33.094Z,4.55
2019-05-10T08:42:43.840Z,4.72
2019-05-10T08:47:34.764Z,4.92
2019-05-10T08:52:38.320Z,5.30
2019-05-10T08:57:44.351Z,4.28
2019-05-10T09:02:47.282Z,3.98
2019-05-10T09:07:52.067Z,3.37
2019-05-10T09:12:58.067Z,4.28
2019-05-10T09:18:04.310Z,3.42
2019-05-10T09:23:08.554Z,3.45
2019-05-10T09:28:16.808Z,3.40
2019-05-10T09:33:17.002Z,3.23
2019-05-10T09:38:22.134Z,3.20
2019-05-10T09:43:25.830Z,2.90
2019-05-10T09:48:28.513Z,2.75
2019-05-10T09:53:32.068Z,3.10
2019-05-10T09:58:38.501Z,2.60
2019-05-10T10:03:43.638Z,3.02
2019-05-10T10:08:49.291Z,3.65
2019-05-10T10:13:59.296Z,3.00
2019-05-10T10:18:57.401Z,2.27
2019-05-10T10:24:12.558Z,2.60
2019-05-10T10:29:07.377Z,3.12
2019-05-10T10:34:11.262Z,2.65
2019-05-10T10:39:16.911Z,3.47
2019-05-10T10:44:20.159Z,3.23
2019-05-10T10:49:28.063Z,2.20
2019-05-10T10:54:36.238Z,2.22
2019-05-10T10:59:34.329Z,3.83
2019-05-10T11:04:40.389Z,2.20
2019-05-10T11:09:43.201Z,2.83
2019-05-10T11:14:46.794Z,2.20
2019-05-10T11:19:50.342Z,1.77
2019-05-10T11:25:00.710Z,2.25
2019-05-10T11:30:00.878Z,3.17
2019-05-10T11:35:05.972Z,3.17
2019-05-10T11:40:11.329Z,1.60
2019-05-10T11:45:14.995Z,4.93
2019-05-10T11:55:23.904Z,1.80
2019-05-10T11:59:05.164Z,2.35
2019-05-10T12:05:32.855Z,1.92
2019-05-10T12:10:43.068Z,1.98
2019-05-10T12:15:43.175Z,1.62
2019-05-10T12:21:00.374Z,2.02
2019-05-10T12:26:03.776Z,2.77
2019-05-10T12:26:49.190Z,1.95
2019-05-10T12:30:57.968Z,1.62
2019-05-10T12:36:02.415Z,1.70
2019-05-10T12:41:06.299Z,1.75
2019-05-10T12:46:10.552Z,2.08
2019-05-10T12:51:16.220Z,1.50
2019-05-10T12:56:19.698Z,1.82
2019-05-10T13:01:25.785Z,4.70
2019-05-10T13:06:28.709Z,2.47
2019-05-10T13:11:32.617Z,3.35
2019-05-10T13:16:36.282Z,1.20
2019-05-10T13:21:39.855Z,2.98
2019-05-10T13:26:43.414Z,2.20
2019-05-10T13:31:47.037Z,4.10
2019-05-10T13:36:50.683Z,2.52
2019-05-10T13:41:57.303Z,3.58
2019-05-10T13:46:59.623Z,3.62
2019-05-10T13:52:03.172Z,2.65
2019-05-10T13:57:06.821Z,1.95
2019-05-10T14:02:10.352Z,3.50
2019-05-10T14:07:13.924Z,1.80
2019-05-10T14:12:23.244Z,3.87
2019-05-10T14:17:21.863Z,2.02
2019-05-10T14:22:25.420Z,3.20
2019-05-10T14:27:29.955Z,4.57
2019-05-10T14:32:34.298Z,1.62
2019-05-10T14:37:37.913Z,1.90
2019-05-10T14:42:41.520Z,1.70
2019-05-10T14:47:47.784Z,2.47
2019-05-10T14:52:50.505Z,2.10
2019-05-10T14:57:54.058Z,2.00
2019-05-10T15:03:02.001Z,1.83
2019-05-10T15:08:02.931Z,2.12
2019-05-10T15:13:06.500Z,1.50
2019-05-10T15:18:10.083Z,1.80
2019-05-10T15:23:13.769Z,1.67
2019-05-10T15:28:17.373Z,1.60
2019-05-10T15:33:21.132Z,2.30
2019-05-10T15:38:24.719Z,2.20
2019-05-10T15:43:28.310Z,1.40
2019-05-10T15:48:36.611Z,2.47
2019-05-10T15:53:37.567Z,1.60
2019-05-10T15:58:43.016Z,1.30
2019-05-10T16:03:47.613Z,2.30
2019-05-10T16:08:51.513Z,1.60
2019-05-10T16:13:59.949Z,1.90
2019-05-10T16:19:00.460Z,3.00
2019-05-10T16:24:05.015Z,1.55
2019-05-10T16:29:08.658Z,3.10
2019-05-10T16:34:12.219Z,2.67
2019-05-10T16:39:15.805Z,1.62
2019-05-10T16:44:21.022Z,2.67
2019-05-10T16:49:25.968Z,1.70
2019-05-10T16:54:30.470Z,2.70
2019-05-10T16:59:35.746Z,1.85
2019-05-10T17:04:39.927Z,1.72
2019-05-10T17:09:43.895Z,2.72
2019-05-10T17:14:50.623Z,1.50
2019-05-10T17:19:54.537Z,2.45
2019-05-10T17:25:03.486Z,2.08
2019-05-10T17:30:06.171Z,2.00
2019-05-10T17:35:10.416Z,1.92
2019-05-10T17:40:14.280Z,1.77
2019-05-10T17:45:18.985Z,2.40
2019-05-10T17:50:23.507Z,2.90
2019-05-10T17:55:27.733Z,2.17
2019-05-10T18:00:35.544Z,2.02
2019-05-10T18:05:44.544Z,2.67
2019-05-10T18:10:44.419Z,4.50
2019-05-10T18:15:48.010Z,6.67
2019-05-10T18:20:51.751Z,7.90
2019-05-10T18:25:58.640Z,9.73
2019-05-10T18:31:00.679Z,7.65
2019-05-10T18:36:04.805Z,7.90
2019-05-10T18:41:09.998Z,11.35
2019-05-10T18:46:13.721Z,12.35
2019-05-10T18:51:17.868Z,12.33
2019-05-10T18:56:25.308Z,10.03
2019-05-10T19:01:32.871Z,9.78
2019-05-10T19:06:33.226Z,10.82
2019-05-10T19:11:39.158Z,11.25
2019-05-10T19:16:42.124Z,9.00
2019-05-10T19:21:45.690Z,17.25
2019-05-10T19:26:49.258Z,16.23
2019-05-10T19:31:52.859Z,17.20
2019-05-10T19:36:56.738Z,19.67
2019-05-10T19:42:04.019Z,18.27
2019-05-10T19:47:05.765Z,18.50
2019-05-10T19:52:09.431Z,18.62
2019-05-10T19:57:16.379Z,19.92
2019-05-10T20:02:18.447Z,20.85
2019-05-10T20:07:21.987Z,22.05
2019-05-10T20:12:25.564Z,17.45
2019-05-10T20:17:29.302Z,16.02
2019-05-10T20:22:35.999Z,17.55
2019-05-10T20:27:38.581Z,15.72
2019-05-10T20:32:42.383Z,14.63
2019-05-10T20:38:00.641Z,22.75
2019-05-10T20:42:51.392Z,21.52
2019-05-10T20:47:54.979Z,22.10
2019-05-10T20:52:58.586Z,20.88
2019-05-10T20:58:02.170Z,25.97
2019-05-10T21:03:05.852Z,18.27
2019-05-10T21:08:16.980Z,21.65
2019-05-10T21:13:14.764Z,18.57
2019-05-10T21:18:18.346Z,25.52
2019-05-10T21:23:21.959Z,20.88
2019-05-10T21:28:25.528Z,21.52
2019-05-10T21:33:29.108Z,19.57
2019-05-10T21:38:33.674Z,19.65
2019-05-10T21:43:37.272Z,21.87
2019-05-10T21:48:40.892Z,21.93
2019-05-10T21:53:44.450Z,19.07
2019-05-10T21:58:48.037Z,15.93
2019-05-10T22:03:51.652Z,17.00
2019-05-10T22:08:55.481Z,17.75
2019-05-10T22:13:59.087Z,15.20
2019-05-10T22:19:03.204Z,15.75
2019-05-10T22:24:06.885Z,14.78
2019-05-10T22:29:10.453Z,16.67
2019-05-10T22:34:14.036Z,16.87
2019-05-10T22:39:17.601Z,13.00
2019-05-10T22:44:21.529Z,14.25
2019-05-10T22:49:25.102Z,13.45
2019-05-10T22:54:28.771Z,12.53
2019-05-10T22:59:32.337Z,12.98
2019-05-10T23:04:35.951Z,13.50
2019-05-10T23:09:39.657Z,11.55
2019-05-10T23:14:43.355Z,11.63
2019-05-10T23:19:47.032Z,10.28
2019-05-10T23:24:50.602Z,11.25
2019-05-10T23:29:54.177Z,9.93
2019-05-10T23:34:57.783Z,9.50
2019-05-10T23:40:01.344Z,9.48
2019-05-10T23:45:06.333Z,9.77
2019-05-10T23:50:09.942Z,9.55
2019-05-10T23:55:13.535Z,10.28
